Machigasta, Argentina
Current Conditions -  °F | °C
As of 11:00 AM on Saturday 22 Nov 2014 (Local Time) from SANT Reporting Station
Broken Clouds Broken Clouds  
Wind Chill: 73°   Ceiling: 4000
Heat Index: 73°   Visibility: 6mi
Dew Point: 63°   Wind: 6mph
Humidity: 69%   Direction: 270°W
Pressure: 30.06"   Gusts: NA
Location:  28.55°S, 66.8°W
Report Text: SANT 221400Z 27005KT 9999 BKN040 BKN10023/17 Q1018
Loading
Personal Weather Stations






























Interactive Weather Map New forecast layout! Learn more

10-Day Weather Forecast

Advertisements
Track Severe Weather on mobile